Dardenne Prairie, Missouri
Current Conditions -  °F | °C
As of 12:54 AM on Saturday 25 Oct 2014 (Local Time) from KSUS Reporting Station
Clear Clear  
Wind Chill: 18°   Ceiling: Unl
Heat Index: 18°   Visibility: 10mi
Dew Point: 14°   Wind: 7mph
Humidity: 80%   Direction: 240°WSW
Pressure: 29.98"   Gusts: NA
Location:  38.757°N, 90.7247°W
Report Text: KSUS 250554Z AUTO 24006KT 10SM CLR 18/14 A2998 RMK AO2 SLP146 T01780144 10194 20150 402330083 58001 TSNO
Loading
Personal Weather Stations






























Interactive Weather Map
Tropical Storm Tracking
New forecast layout! Learn more

10-Day Weather Forecast

Advertisements
Track Severe Weather on mobile